sensor_id;sensor_type;location;lat;lon;timestamp;P1;durP1;ratioP1;P2;durP2;ratioP2
56405;SDS011;42305;51.444;-2.584;2022-08-03T00:01:57;1.65;;;1.65;;
56405;SDS011;42305;51.444;-2.584;2022-08-03T00:04:23;2.20;;;2.20;;
56405;SDS011;42305;51.444;-2.584;2022-08-03T00:09:36;3.17;;;2.97;;
56405;SDS011;42305;51.444;-2.584;2022-08-03T00:12:02;2.00;;;2.00;;
56405;SDS011;42305;51.444;-2.584;2022-08-03T00:14:28;1.70;;;1.70;;
56405;SDS011;42305;51.444;-2.584;2022-08-03T00:16:56;2.33;;;2.22;;
56405;SDS011;42305;51.444;-2.584;2022-08-03T00:19:22;2.10;;;2.10;;
56405;SDS011;42305;51.444;-2.584;2022-08-03T00:21:49;1.80;;;1.80;;
56405;SDS011;42305;51.444;-2.584;2022-08-03T00:24:15;2.10;;;2.10;;
56405;SDS011;42305;51.444;-2.584;2022-08-03T00:29:44;1.92;;;1.92;;
56405;SDS011;42305;51.444;-2.584;2022-08-03T00:32:10;1.95;;;1.95;;
56405;SDS011;42305;51.444;-2.584;2022-08-03T00:34:36;2.03;;;2.03;;
56405;SDS011;42305;51.444;-2.584;2022-08-03T00:37:03;1.98;;;1.98;;
56405;SDS011;42305;51.444;-2.584;2022-08-03T00:39:29;1.60;;;1.60;;
56405;SDS011;42305;51.444;-2.584;2022-08-03T00:41:55;2.10;;;2.10;;
56405;SDS011;42305;51.444;-2.584;2022-08-03T00:44:21;1.80;;;1.80;;
56405;SDS011;42305;51.444;-2.584;2022-08-03T00:46:47;2.63;;;2.60;;
56405;SDS011;42305;51.444;-2.584;2022-08-03T00:49:13;2.45;;;2.45;;
56405;SDS011;42305;51.444;-2.584;2022-08-03T00:51:39;2.63;;;2.53;;
56405;SDS011;42305;51.444;-2.584;2022-08-03T00:54:05;2.20;;;2.20;;
56405;SDS011;42305;51.444;-2.584;2022-08-03T00:56:32;1.70;;;1.70;;
56405;SDS011;42305;51.444;-2.584;2022-08-03T00:58:58;1.83;;;1.83;;
56405;SDS011;42305;51.444;-2.584;2022-08-03T01:01:24;5.78;;;2.40;;
56405;SDS011;42305;51.444;-2.584;2022-08-03T01:03:50;2.55;;;2.45;;
56405;SDS011;42305;51.444;-2.584;2022-08-03T01:12:31;4.80;;;4.40;;
56405;SDS011;42305;51.444;-2.584;2022-08-03T01:14:26;2.17;;;2.17;;
56405;SDS011;42305;51.444;-2.584;2022-08-03T01:19:44;2.85;;;2.67;;
56405;SDS011;42305;51.444;-2.584;2022-08-03T01:27:25;2.03;;;2.03;;
56405;SDS011;42305;51.444;-2.584;2022-08-03T01:32:21;2.20;;;2.20;;
56405;SDS011;42305;51.444;-2.584;2022-08-03T01:34:57;2.30;;;2.30;;
56405;SDS011;42305;51.444;-2.584;2022-08-03T01:37:29;2.10;;;2.10;;
56405;SDS011;42305;51.444;-2.584;2022-08-03T01:39:56;1.83;;;1.83;;
56405;SDS011;42305;51.444;-2.584;2022-08-03T01:42:23;4.18;;;2.88;;
56405;SDS011;42305;51.444;-2.584;2022-08-03T01:44:50;2.22;;;2.22;;
56405;SDS011;42305;51.444;-2.584;2022-08-03T01:47:19;3.30;;;3.15;;
56405;SDS011;42305;51.444;-2.584;2022-08-03T01:49:45;2.58;;;2.58;;
56405;SDS011;42305;51.444;-2.584;2022-08-03T01:52:12;2.25;;;2.25;;
56405;SDS011;42305;51.444;-2.584;2022-08-03T01:54:42;2.30;;;2.30;;
56405;SDS011;42305;51.444;-2.584;2022-08-03T01:57:11;3.90;;;3.80;;
56405;SDS011;42305;51.444;-2.584;2022-08-03T01:59:38;2.45;;;2.45;;
56405;SDS011;42305;51.444;-2.584;2022-08-03T02:02:04;2.20;;;2.20;;
56405;SDS011;42305;51.444;-2.584;2022-08-03T02:04:32;2.92;;;2.83;;
56405;SDS011;42305;51.444;-2.584;2022-08-03T02:09:46;1.80;;;1.80;;
56405;SDS011;42305;51.444;-2.584;2022-08-03T02:12:13;2.47;;;2.47;;
56405;SDS011;42305;51.444;-2.584;2022-08-03T02:14:40;2.30;;;2.30;;
56405;SDS011;42305;51.444;-2.584;2022-08-03T02:17:08;2.47;;;2.47;;
56405;SDS011;42305;51.444;-2.584;2022-08-03T02:19:35;2.25;;;2.25;;
56405;SDS011;42305;51.444;-2.584;2022-08-03T02:22:02;2.38;;;2.38;;
56405;SDS011;42305;51.444;-2.584;2022-08-03T02:24:29;2.67;;;2.67;;
56405;SDS011;42305;51.444;-2.584;2022-08-03T02:26:56;2.50;;;2.50;;
56405;SDS011;42305;51.444;-2.584;2022-08-03T02:29:24;2.17;;;2.17;;
56405;SDS011;42305;51.444;-2.584;2022-08-03T02:31:50;2.30;;;2.30;;
56405;SDS011;42305;51.444;-2.584;2022-08-03T02:34:17;2.20;;;2.20;;
56405;SDS011;42305;51.444;-2.584;2022-08-03T02:36:47;2.70;;;2.63;;
56405;SDS011;42305;51.444;-2.584;2022-08-03T02:39:15;2.70;;;2.70;;
56405;SDS011;42305;51.444;-2.584;2022-08-03T02:41:44;2.50;;;2.50;;
56405;SDS011;42305;51.444;-2.584;2022-08-03T02:44:11;2.53;;;2.53;;
56405;SDS011;42305;51.444;-2.584;2022-08-03T02:46:38;3.13;;;3.03;;
56405;SDS011;42305;51.444;-2.584;2022-08-03T02:49:06;4.00;;;3.80;;
56405;SDS011;42305;51.444;-2.584;2022-08-03T02:51:34;3.55;;;3.35;;
56405;SDS011;42305;51.444;-2.584;2022-08-03T02:54:01;2.38;;;2.38;;
56405;SDS011;42305;51.444;-2.584;2022-08-03T02:56:29;1.90;;;1.90;;
56405;SDS011;42305;51.444;-2.584;2022-08-03T02:58:56;2.58;;;2.58;;
56405;SDS011;42305;51.444;-2.584;2022-08-03T03:01:23;1.90;;;1.90;;
56405;SDS011;42305;51.444;-2.584;2022-08-03T03:03:49;8.52;;;3.17;;
56405;SDS011;42305;51.444;-2.584;2022-08-03T03:09:05;2.42;;;2.42;;
56405;SDS011;42305;51.444;-2.584;2022-08-03T03:11:35;3.25;;;3.15;;
56405;SDS011;42305;51.444;-2.584;2022-08-03T03:14:03;2.75;;;2.65;;
56405;SDS011;42305;51.444;-2.584;2022-08-03T03:19:16;2.83;;;2.83;;
56405;SDS011;42305;51.444;-2.584;2022-08-03T03:21:43;2.28;;;2.28;;
56405;SDS011;42305;51.444;-2.584;2022-08-03T03:24:09;2.45;;;2.45;;
56405;SDS011;42305;51.444;-2.584;2022-08-03T03:26:36;2.28;;;2.28;;
56405;SDS011;42305;51.444;-2.584;2022-08-03T03:29:03;3.28;;;3.17;;
56405;SDS011;42305;51.444;-2.584;2022-08-03T03:31:29;2.00;;;2.00;;
56405;SDS011;42305;51.444;-2.584;2022-08-03T03:33:58;2.28;;;2.28;;
56405;SDS011;42305;51.444;-2.584;2022-08-03T03:38:54;2.25;;;2.25;;
56405;SDS011;42305;51.444;-2.584;2022-08-03T03:41:21;2.42;;;2.42;;
56405;SDS011;42305;51.444;-2.584;2022-08-03T03:43:48;2.38;;;2.38;;
56405;SDS011;42305;51.444;-2.584;2022-08-03T03:46:15;2.45;;;2.35;;
56405;SDS011;42305;51.444;-2.584;2022-08-03T03:48:41;2.30;;;2.30;;
56405;SDS011;42305;51.444;-2.584;2022-08-03T03:51:08;2.40;;;2.40;;
56405;SDS011;42305;51.444;-2.584;2022-08-03T03:53:34;2.33;;;2.33;;
56405;SDS011;42305;51.444;-2.584;2022-08-03T03:56:01;2.33;;;2.33;;
56405;SDS011;42305;51.444;-2.584;2022-08-03T03:58:27;2.20;;;2.20;;
56405;SDS011;42305;51.444;-2.584;2022-08-03T04:00:53;2.20;;;2.20;;
56405;SDS011;42305;51.444;-2.584;2022-08-03T04:03:19;2.22;;;2.22;;
56405;SDS011;42305;51.444;-2.584;2022-08-03T04:05:45;2.30;;;2.30;;
56405;SDS011;42305;51.444;-2.584;2022-08-03T04:11:35;2.25;;;2.25;;
56405;SDS011;42305;51.444;-2.584;2022-08-03T04:14:45;1.98;;;1.98;;
56405;SDS011;42305;51.444;-2.584;2022-08-03T04:17:02;14.20;;;6.57;;
56405;SDS011;42305;51.444;-2.584;2022-08-03T04:19:31;2.50;;;2.50;;
56405;SDS011;42305;51.444;-2.584;2022-08-03T04:22:00;2.10;;;2.10;;
56405;SDS011;42305;51.444;-2.584;2022-08-03T04:24:38;2.00;;;2.00;;
56405;SDS011;42305;51.444;-2.584;2022-08-03T04:29:51;2.30;;;2.30;;
56405;SDS011;42305;51.444;-2.584;2022-08-03T04:32:18;3.22;;;3.13;;
56405;SDS011;42305;51.444;-2.584;2022-08-03T04:34:45;2.10;;;2.10;;
56405;SDS011;42305;51.444;-2.584;2022-08-03T04:39:56;1.88;;;1.88;;
56405;SDS011;42305;51.444;-2.584;2022-08-03T04:42:24;2.00;;;2.00;;
56405;SDS011;42305;51.444;-2.584;2022-08-03T04:44:51;2.20;;;2.20;;
56405;SDS011;42305;51.444;-2.584;2022-08-03T04:49:50;2.10;;;2.10;;
56405;SDS011;42305;51.444;-2.584;2022-08-03T04:52:17;2.30;;;2.30;;
56405;SDS011;42305;51.444;-2.584;2022-08-03T04:54:43;2.20;;;2.20;;
56405;SDS011;42305;51.444;-2.584;2022-08-03T04:57:12;2.10;;;2.10;;
56405;SDS011;42305;51.444;-2.584;2022-08-03T04:59:38;2.10;;;2.10;;
56405;SDS011;42305;51.444;-2.584;2022-08-03T05:02:04;1.70;;;1.70;;
56405;SDS011;42305;51.444;-2.584;2022-08-03T05:04:33;1.90;;;1.90;;
56405;SDS011;42305;51.444;-2.584;2022-08-03T05:09:30;2.00;;;2.00;;
56405;SDS011;42305;51.444;-2.584;2022-08-03T05:11:56;2.10;;;2.10;;
56405;SDS011;42305;51.444;-2.584;2022-08-03T05:14:22;1.80;;;1.80;;
56405;SDS011;42305;51.444;-2.584;2022-08-03T05:16:49;2.15;;;2.15;;
56405;SDS011;42305;51.444;-2.584;2022-08-03T05:19:15;1.95;;;1.95;;
56405;SDS011;42305;51.444;-2.584;2022-08-03T05:21:41;2.17;;;2.17;;
56405;SDS011;42305;51.444;-2.584;2022-08-03T05:24:07;2.30;;;2.25;;
56405;SDS011;42305;51.444;-2.584;2022-08-03T05:26:34;1.85;;;1.85;;
56405;SDS011;42305;51.444;-2.584;2022-08-03T05:29:00;2.38;;;2.38;;
56405;SDS011;42305;51.444;-2.584;2022-08-03T05:31:26;2.40;;;2.40;;
56405;SDS011;42305;51.444;-2.584;2022-08-03T05:33:52;2.30;;;2.30;;
56405;SDS011;42305;51.444;-2.584;2022-08-03T05:39:23;1.85;;;1.85;;
56405;SDS011;42305;51.444;-2.584;2022-08-03T05:41:49;2.40;;;2.40;;
56405;SDS011;42305;51.444;-2.584;2022-08-03T05:44:15;2.00;;;2.00;;
56405;SDS011;42305;51.444;-2.584;2022-08-03T05:49:44;1.83;;;1.83;;
56405;SDS011;42305;51.444;-2.584;2022-08-03T05:52:10;2.20;;;2.20;;
56405;SDS011;42305;51.444;-2.584;2022-08-03T05:54:36;1.90;;;1.90;;
56405;SDS011;42305;51.444;-2.584;2022-08-03T05:57:05;2.20;;;2.20;;
56405;SDS011;42305;51.444;-2.584;2022-08-03T05:59:31;2.00;;;2.00;;
56405;SDS011;42305;51.444;-2.584;2022-08-03T06:01:57;1.90;;;1.90;;
56405;SDS011;42305;51.444;-2.584;2022-08-03T06:04:23;1.70;;;1.70;;
56405;SDS011;42305;51.444;-2.584;2022-08-03T06:06:51;2.10;;;2.10;;
56405;SDS011;42305;51.444;-2.584;2022-08-03T06:09:17;2.83;;;2.78;;
56405;SDS011;42305;51.444;-2.584;2022-08-03T06:11:43;1.90;;;1.90;;
56405;SDS011;42305;51.444;-2.584;2022-08-03T06:14:09;2.13;;;2.13;;
56405;SDS011;42305;51.444;-2.584;2022-08-03T06:16:37;2.20;;;2.20;;
56405;SDS011;42305;51.444;-2.584;2022-08-03T06:19:03;1.55;;;1.55;;
56405;SDS011;42305;51.444;-2.584;2022-08-03T06:21:29;1.85;;;1.85;;
56405;SDS011;42305;51.444;-2.584;2022-08-03T06:23:55;1.90;;;1.90;;
56405;SDS011;42305;51.444;-2.584;2022-08-03T06:26:23;2.13;;;2.13;;
56405;SDS011;42305;51.444;-2.584;2022-08-03T06:28:49;1.80;;;1.80;;
56405;SDS011;42305;51.444;-2.584;2022-08-03T06:31:15;2.05;;;2.05;;
56405;SDS011;42305;51.444;-2.584;2022-08-03T06:33:41;2.00;;;2.00;;
56405;SDS011;42305;51.444;-2.584;2022-08-03T06:36:07;1.80;;;1.80;;
56405;SDS011;42305;51.444;-2.584;2022-08-03T06:38:33;1.90;;;1.90;;
56405;SDS011;42305;51.444;-2.584;2022-08-03T06:40:59;1.77;;;1.77;;
56405;SDS011;42305;51.444;-2.584;2022-08-03T06:43:25;1.90;;;1.90;;
56405;SDS011;42305;51.444;-2.584;2022-08-03T06:45:51;1.92;;;1.92;;
56405;SDS011;42305;51.444;-2.584;2022-08-03T06:48:17;2.25;;;2.25;;
56405;SDS011;42305;51.444;-2.584;2022-08-03T06:50:43;1.80;;;1.80;;
56405;SDS011;42305;51.444;-2.584;2022-08-03T06:53:09;1.70;;;1.70;;
56405;SDS011;42305;51.444;-2.584;2022-08-03T06:55:36;2.33;;;2.28;;
56405;SDS011;42305;51.444;-2.584;2022-08-03T06:58:02;2.10;;;2.10;;
56405;SDS011;42305;51.444;-2.584;2022-08-03T07:00:28;1.90;;;1.90;;
56405;SDS011;42305;51.444;-2.584;2022-08-03T07:02:55;2.10;;;2.10;;
56405;SDS011;42305;51.444;-2.584;2022-08-03T07:05:21;1.90;;;1.90;;
56405;SDS011;42305;51.444;-2.584;2022-08-03T07:07:49;3.30;;;1.95;;
56405;SDS011;42305;51.444;-2.584;2022-08-03T07:10:15;2.05;;;2.05;;
56405;SDS011;42305;51.444;-2.584;2022-08-03T07:12:41;1.60;;;1.60;;
56405;SDS011;42305;51.444;-2.584;2022-08-03T07:15:08;1.95;;;1.95;;
56405;SDS011;42305;51.444;-2.584;2022-08-03T07:17:39;2.00;;;2.00;;
56405;SDS011;42305;51.444;-2.584;2022-08-03T07:20:14;2.00;;;2.00;;
56405;SDS011;42305;51.444;-2.584;2022-08-03T07:22:42;1.65;;;1.65;;
56405;SDS011;42305;51.444;-2.584;2022-08-03T07:25:08;1.80;;;1.80;;
56405;SDS011;42305;51.444;-2.584;2022-08-03T07:27:35;3.03;;;2.00;;
56405;SDS011;42305;51.444;-2.584;2022-08-03T07:30:04;3.03;;;2.47;;
56405;SDS011;42305;51.444;-2.584;2022-08-03T07:32:30;1.77;;;1.77;;
56405;SDS011;42305;51.444;-2.584;2022-08-03T07:34:56;1.80;;;1.80;;
56405;SDS011;42305;51.444;-2.584;2022-08-03T07:37:22;1.90;;;1.90;;
56405;SDS011;42305;51.444;-2.584;2022-08-03T07:39:48;1.70;;;1.70;;
56405;SDS011;42305;51.444;-2.584;2022-08-03T07:42:15;1.90;;;1.90;;
56405;SDS011;42305;51.444;-2.584;2022-08-03T07:44:41;2.00;;;1.90;;
56405;SDS011;42305;51.444;-2.584;2022-08-03T07:47:07;1.60;;;1.60;;
56405;SDS011;42305;51.444;-2.584;2022-08-03T07:49:37;2.00;;;2.00;;
56405;SDS011;42305;51.444;-2.584;2022-08-03T07:52:03;1.70;;;1.70;;
56405;SDS011;42305;51.444;-2.584;2022-08-03T07:54:48;1.50;;;1.50;;
56405;SDS011;42305;51.444;-2.584;2022-08-03T07:57:16;1.30;;;1.30;;
56405;SDS011;42305;51.444;-2.584;2022-08-03T07:59:44;1.40;;;1.40;;
56405;SDS011;42305;51.444;-2.584;2022-08-03T08:02:10;1.30;;;1.30;;
56405;SDS011;42305;51.444;-2.584;2022-08-03T08:04:36;1.30;;;1.30;;
56405;SDS011;42305;51.444;-2.584;2022-08-03T08:07:03;1.42;;;1.42;;
56405;SDS011;42305;51.444;-2.584;2022-08-03T08:09:29;1.40;;;1.40;;
56405;SDS011;42305;51.444;-2.584;2022-08-03T08:11:55;1.70;;;1.70;;
56405;SDS011;42305;51.444;-2.584;2022-08-03T08:14:21;1.20;;;1.20;;
56405;SDS011;42305;51.444;-2.584;2022-08-03T08:16:49;1.70;;;1.70;;
56405;SDS011;42305;51.444;-2.584;2022-08-03T08:19:15;1.70;;;1.70;;
56405;SDS011;42305;51.444;-2.584;2022-08-03T08:21:41;1.52;;;1.52;;
56405;SDS011;42305;51.444;-2.584;2022-08-03T08:24:07;2.00;;;2.00;;
56405;SDS011;42305;51.444;-2.584;2022-08-03T08:26:34;1.70;;;1.70;;
56405;SDS011;42305;51.444;-2.584;2022-08-03T08:29:00;1.40;;;1.40;;
56405;SDS011;42305;51.444;-2.584;2022-08-03T08:31:26;1.48;;;1.48;;
56405;SDS011;42305;51.444;-2.584;2022-08-03T08:33:52;1.30;;;1.30;;
56405;SDS011;42305;51.444;-2.584;2022-08-03T08:36:19;1.40;;;1.40;;
56405;SDS011;42305;51.444;-2.584;2022-08-03T08:38:45;1.60;;;1.60;;
56405;SDS011;42305;51.444;-2.584;2022-08-03T08:41:12;1.20;;;1.20;;
56405;SDS011;42305;51.444;-2.584;2022-08-03T08:43:38;1.33;;;1.33;;
56405;SDS011;42305;51.444;-2.584;2022-08-03T08:46:05;1.30;;;1.30;;
56405;SDS011;42305;51.444;-2.584;2022-08-03T08:48:32;1.77;;;1.67;;
56405;SDS011;42305;51.444;-2.584;2022-08-03T08:50:58;1.20;;;1.20;;
56405;SDS011;42305;51.444;-2.584;2022-08-03T08:53:25;1.50;;;1.50;;
56405;SDS011;42305;51.444;-2.584;2022-08-03T08:55:52;2.20;;;2.20;;
56405;SDS011;42305;51.444;-2.584;2022-08-03T08:58:20;1.48;;;1.48;;
56405;SDS011;42305;51.444;-2.584;2022-08-03T09:00:47;2.15;;;2.15;;
56405;SDS011;42305;51.444;-2.584;2022-08-03T09:03:14;1.90;;;1.90;;
56405;SDS011;42305;51.444;-2.584;2022-08-03T09:05:42;2.40;;;2.40;;
56405;SDS011;42305;51.444;-2.584;2022-08-03T09:08:09;1.92;;;1.92;;
56405;SDS011;42305;51.444;-2.584;2022-08-03T09:10:35;1.80;;;1.80;;
56405;SDS011;42305;51.444;-2.584;2022-08-03T09:13:01;1.80;;;1.80;;
56405;SDS011;42305;51.444;-2.584;2022-08-03T09:15:28;1.88;;;1.88;;
56405;SDS011;42305;51.444;-2.584;2022-08-03T09:20:43;3.83;;;3.63;;
56405;SDS011;42305;51.444;-2.584;2022-08-03T09:23:10;2.00;;;2.00;;
56405;SDS011;42305;51.444;-2.584;2022-08-03T09:25:37;1.70;;;1.70;;
56405;SDS011;42305;51.444;-2.584;2022-08-03T09:28:05;2.28;;;2.28;;
56405;SDS011;42305;51.444;-2.584;2022-08-03T09:30:32;1.80;;;1.80;;
56405;SDS011;42305;51.444;-2.584;2022-08-03T09:32:59;1.70;;;1.70;;
56405;SDS011;42305;51.444;-2.584;2022-08-03T09:35:26;2.10;;;2.10;;
56405;SDS011;42305;51.444;-2.584;2022-08-03T09:40:37;1.98;;;1.98;;
56405;SDS011;42305;51.444;-2.584;2022-08-03T09:43:04;2.00;;;2.00;;
56405;SDS011;42305;51.444;-2.584;2022-08-03T09:45:32;1.60;;;1.60;;
56405;SDS011;42305;51.444;-2.584;2022-08-03T09:48:05;1.65;;;1.65;;
56405;SDS011;42305;51.444;-2.584;2022-08-03T09:50:51;2.00;;;2.00;;
56405;SDS011;42305;51.444;-2.584;2022-08-03T09:53:17;1.95;;;1.95;;
56405;SDS011;42305;51.444;-2.584;2022-08-03T09:56:00;1.90;;;1.90;;
56405;SDS011;42305;51.444;-2.584;2022-08-03T09:58:27;1.90;;;1.90;;
56405;SDS011;42305;51.444;-2.584;2022-08-03T10:00:54;2.45;;;2.35;;
56405;SDS011;42305;51.444;-2.584;2022-08-03T10:03:21;1.83;;;1.83;;
56405;SDS011;42305;51.444;-2.584;2022-08-03T10:05:47;2.33;;;2.33;;
56405;SDS011;42305;51.444;-2.584;2022-08-03T10:08:14;2.00;;;2.00;;
56405;SDS011;42305;51.444;-2.584;2022-08-03T10:10:41;2.13;;;2.13;;
56405;SDS011;42305;51.444;-2.584;2022-08-03T10:13:07;2.00;;;2.00;;
56405;SDS011;42305;51.444;-2.584;2022-08-03T10:15:35;1.80;;;1.80;;
56405;SDS011;42305;51.444;-2.584;2022-08-03T10:18:01;1.85;;;1.85;;
56405;SDS011;42305;51.444;-2.584;2022-08-03T10:20:27;1.33;;;1.33;;
56405;SDS011;42305;51.444;-2.584;2022-08-03T10:22:53;2.13;;;2.13;;
56405;SDS011;42305;51.444;-2.584;2022-08-03T10:25:20;2.88;;;2.70;;
56405;SDS011;42305;51.444;-2.584;2022-08-03T10:27:46;1.30;;;1.30;;
56405;SDS011;42305;51.444;-2.584;2022-08-03T10:30:15;2.30;;;2.20;;
56405;SDS011;42305;51.444;-2.584;2022-08-03T10:32:42;3.55;;;3.25;;
56405;SDS011;42305;51.444;-2.584;2022-08-03T10:35:14;2.00;;;2.00;;
56405;SDS011;42305;51.444;-2.584;2022-08-03T10:37:41;1.70;;;1.70;;
56405;SDS011;42305;51.444;-2.584;2022-08-03T10:40:08;1.40;;;1.40;;
56405;SDS011;42305;51.444;-2.584;2022-08-03T10:42:37;2.55;;;2.45;;
56405;SDS011;42305;51.444;-2.584;2022-08-03T10:45:05;1.63;;;1.63;;
56405;SDS011;42305;51.444;-2.584;2022-08-03T10:47:31;2.03;;;1.92;;
56405;SDS011;42305;51.444;-2.584;2022-08-03T10:49:58;1.92;;;1.92;;
56405;SDS011;42305;51.444;-2.584;2022-08-03T10:52:25;1.33;;;1.33;;
56405;SDS011;42305;51.444;-2.584;2022-08-03T10:54:51;1.30;;;1.30;;
56405;SDS011;42305;51.444;-2.584;2022-08-03T11:00:12;1.30;;;1.30;;
56405;SDS011;42305;51.444;-2.584;2022-08-03T11:05:24;2.05;;;2.05;;
56405;SDS011;42305;51.444;-2.584;2022-08-03T11:07:50;2.35;;;2.25;;
56405;SDS011;42305;51.444;-2.584;2022-08-03T11:10:29;1.20;;;1.20;;
56405;SDS011;42305;51.444;-2.584;2022-08-03T11:13:04;1.50;;;1.50;;
56405;SDS011;42305;51.444;-2.584;2022-08-03T11:15:32;1.27;;;1.27;;
56405;SDS011;42305;51.444;-2.584;2022-08-03T11:18:05;1.63;;;1.55;;
56405;SDS011;42305;51.444;-2.584;2022-08-03T11:23:10;13.60;;;2.05;;
56405;SDS011;42305;51.444;-2.584;2022-08-03T11:26:22;2.40;;;2.30;;
56405;SDS011;42305;51.444;-2.584;2022-08-03T11:28:27;1.30;;;1.30;;
56405;SDS011;42305;51.444;-2.584;2022-08-03T11:30:53;1.50;;;1.50;;
56405;SDS011;42305;51.444;-2.584;2022-08-03T11:33:28;1.80;;;1.80;;
56405;SDS011;42305;51.444;-2.584;2022-08-03T11:35:59;7.13;;;1.70;;
56405;SDS011;42305;51.444;-2.584;2022-08-03T11:38:25;2.22;;;1.30;;
56405;SDS011;42305;51.444;-2.584;2022-08-03T11:40:52;1.42;;;1.42;;
56405;SDS011;42305;51.444;-2.584;2022-08-03T11:45:57;1.10;;;1.10;;
56405;SDS011;42305;51.444;-2.584;2022-08-03T11:48:34;0.90;;;0.90;;
56405;SDS011;42305;51.444;-2.584;2022-08-03T11:51:00;1.17;;;1.17;;
56405;SDS011;42305;51.444;-2.584;2022-08-03T11:53:26;1.10;;;1.10;;
56405;SDS011;42305;51.444;-2.584;2022-08-03T11:55:52;3.40;;;1.27;;
56405;SDS011;42305;51.444;-2.584;2022-08-03T11:58:22;0.80;;;0.80;;
56405;SDS011;42305;51.444;-2.584;2022-08-03T12:00:48;0.85;;;0.85;;
56405;SDS011;42305;51.444;-2.584;2022-08-03T12:03:16;0.98;;;0.98;;
56405;SDS011;42305;51.444;-2.584;2022-08-03T12:05:52;0.70;;;0.70;;
56405;SDS011;42305;51.444;-2.584;2022-08-03T12:08:31;0.82;;;0.82;;
56405;SDS011;42305;51.444;-2.584;2022-08-03T12:10:58;0.90;;;0.90;;
56405;SDS011;42305;51.444;-2.584;2022-08-03T12:13:24;0.80;;;0.80;;
56405;SDS011;42305;51.444;-2.584;2022-08-03T12:15:56;1.05;;;1.05;;
56405;SDS011;42305;51.444;-2.584;2022-08-03T12:18:25;0.98;;;0.98;;
56405;SDS011;42305;51.444;-2.584;2022-08-03T12:20:52;1.45;;;1.45;;
56405;SDS011;42305;51.444;-2.584;2022-08-03T12:23:18;1.65;;;1.55;;
56405;SDS011;42305;51.444;-2.584;2022-08-03T12:25:45;1.35;;;1.35;;
56405;SDS011;42305;51.444;-2.584;2022-08-03T12:28:19;1.15;;;1.15;;
56405;SDS011;42305;51.444;-2.584;2022-08-03T12:30:50;0.90;;;0.90;;
56405;SDS011;42305;51.444;-2.584;2022-08-03T12:35:44;5.68;;;1.33;;
56405;SDS011;42305;51.444;-2.584;2022-08-03T12:38:10;0.85;;;0.85;;
56405;SDS011;42305;51.444;-2.584;2022-08-03T12:40:37;3.50;;;1.30;;
56405;SDS011;42305;51.444;-2.584;2022-08-03T12:43:10;0.60;;;0.60;;
56405;SDS011;42305;51.444;-2.584;2022-08-03T12:45:36;0.80;;;0.80;;
56405;SDS011;42305;51.444;-2.584;2022-08-03T12:48:02;1.08;;;1.08;;
56405;SDS011;42305;51.444;-2.584;2022-08-03T12:50:33;22.17;;;1.83;;
56405;SDS011;42305;51.444;-2.584;2022-08-03T12:53:00;0.50;;;0.50;;
56405;SDS011;42305;51.444;-2.584;2022-08-03T12:55:27;0.80;;;0.80;;
56405;SDS011;42305;51.444;-2.584;2022-08-03T12:58:00;0.63;;;0.63;;
56405;SDS011;42305;51.444;-2.584;2022-08-03T13:00:27;0.80;;;0.80;;
56405;SDS011;42305;51.444;-2.584;2022-08-03T13:03:12;1.10;;;0.98;;
56405;SDS011;42305;51.444;-2.584;2022-08-03T13:05:44;1.33;;;1.13;;
56405;SDS011;42305;51.444;-2.584;2022-08-03T13:08:19;0.88;;;0.88;;
56405;SDS011;42305;51.444;-2.584;2022-08-03T13:10:46;0.40;;;0.40;;
56405;SDS011;42305;51.444;-2.584;2022-08-03T13:13:12;0.38;;;0.38;;
56405;SDS011;42305;51.444;-2.584;2022-08-03T13:15:38;0.40;;;0.40;;
56405;SDS011;42305;51.444;-2.584;2022-08-03T13:18:04;0.60;;;0.60;;
56405;SDS011;42305;51.444;-2.584;2022-08-03T13:20:31;0.40;;;0.40;;
56405;SDS011;42305;51.444;-2.584;2022-08-03T13:22:57;0.50;;;0.50;;
56405;SDS011;42305;51.444;-2.584;2022-08-03T13:25:23;0.63;;;0.63;;
56405;SDS011;42305;51.444;-2.584;2022-08-03T13:27:49;0.60;;;0.60;;
56405;SDS011;42305;51.444;-2.584;2022-08-03T13:30:16;0.60;;;0.60;;
56405;SDS011;42305;51.444;-2.584;2022-08-03T13:32:43;1.65;;;0.77;;
56405;SDS011;42305;51.444;-2.584;2022-08-03T13:35:09;0.75;;;0.75;;
56405;SDS011;42305;51.444;-2.584;2022-08-03T13:37:36;4.72;;;1.35;;
56405;SDS011;42305;51.444;-2.584;2022-08-03T13:40:04;0.80;;;0.80;;
56405;SDS011;42305;51.444;-2.584;2022-08-03T13:42:31;0.82;;;0.82;;
56405;SDS011;42305;51.444;-2.584;2022-08-03T13:44:57;19.65;;;3.80;;
56405;SDS011;42305;51.444;-2.584;2022-08-03T13:47:23;0.90;;;0.90;;
56405;SDS011;42305;51.444;-2.584;2022-08-03T13:49:49;1.55;;;0.98;;
56405;SDS011;42305;51.444;-2.584;2022-08-03T13:52:17;0.57;;;0.57;;
56405;SDS011;42305;51.444;-2.584;2022-08-03T13:54:43;0.82;;;0.82;;
56405;SDS011;42305;51.444;-2.584;2022-08-03T13:57:09;2.63;;;1.02;;
56405;SDS011;42305;51.444;-2.584;2022-08-03T13:59:35;0.50;;;0.50;;
56405;SDS011;42305;51.444;-2.584;2022-08-03T14:02:02;0.63;;;0.63;;
56405;SDS011;42305;51.444;-2.584;2022-08-03T14:04:28;0.52;;;0.52;;
56405;SDS011;42305;51.444;-2.584;2022-08-03T14:06:54;0.40;;;0.40;;
56405;SDS011;42305;51.444;-2.584;2022-08-03T14:09:20;0.52;;;0.52;;
56405;SDS011;42305;51.444;-2.584;2022-08-03T14:11:46;0.30;;;0.30;;
56405;SDS011;42305;51.444;-2.584;2022-08-03T14:14:12;0.43;;;0.43;;
56405;SDS011;42305;51.444;-2.584;2022-08-03T14:16:38;0.50;;;0.50;;
56405;SDS011;42305;51.444;-2.584;2022-08-03T14:19:05;0.70;;;0.70;;
56405;SDS011;42305;51.444;-2.584;2022-08-03T14:21:31;0.40;;;0.40;;
56405;SDS011;42305;51.444;-2.584;2022-08-03T14:23:58;0.22;;;0.22;;
56405;SDS011;42305;51.444;-2.584;2022-08-03T14:26:24;1.55;;;1.00;;
56405;SDS011;42305;51.444;-2.584;2022-08-03T14:28:50;0.35;;;0.35;;
56405;SDS011;42305;51.444;-2.584;2022-08-03T14:31:16;1.20;;;0.75;;
56405;SDS011;42305;51.444;-2.584;2022-08-03T14:33:42;0.10;;;0.10;;
56405;SDS011;42305;51.444;-2.584;2022-08-03T14:36:08;1.38;;;0.95;;
56405;SDS011;42305;51.444;-2.584;2022-08-03T14:38:35;0.28;;;0.28;;
56405;SDS011;42305;51.444;-2.584;2022-08-03T14:41:01;2.75;;;0.55;;
56405;SDS011;42305;51.444;-2.584;2022-08-03T14:43:27;0.43;;;0.43;;
56405;SDS011;42305;51.444;-2.584;2022-08-03T14:45:53;0.10;;;0.10;;
56405;SDS011;42305;51.444;-2.584;2022-08-03T14:48:19;0.10;;;0.10;;
56405;SDS011;42305;51.444;-2.584;2022-08-03T14:50:45;1.33;;;0.52;;
56405;SDS011;42305;51.444;-2.584;2022-08-03T14:53:12;0.20;;;0.20;;
56405;SDS011;42305;51.444;-2.584;2022-08-03T14:55:38;0.10;;;0.10;;
56405;SDS011;42305;51.444;-2.584;2022-08-03T14:58:04;0.63;;;0.40;;
56405;SDS011;42305;51.444;-2.584;2022-08-03T15:00:31;0.17;;;0.17;;
56405;SDS011;42305;51.444;-2.584;2022-08-03T15:02:58;0.20;;;0.20;;
56405;SDS011;42305;51.444;-2.584;2022-08-03T15:05:24;0.25;;;0.20;;
56405;SDS011;42305;51.444;-2.584;2022-08-03T15:07:50;4.80;;;1.42;;
56405;SDS011;42305;51.444;-2.584;2022-08-03T15:10:16;0.43;;;0.43;;
56405;SDS011;42305;51.444;-2.584;2022-08-03T15:12:42;0.50;;;0.50;;
56405;SDS011;42305;51.444;-2.584;2022-08-03T15:15:08;1.05;;;0.32;;
56405;SDS011;42305;51.444;-2.584;2022-08-03T15:17:35;0.43;;;0.43;;
56405;SDS011;42305;51.444;-2.584;2022-08-03T15:20:01;0.43;;;0.40;;
56405;SDS011;42305;51.444;-2.584;2022-08-03T15:22:27;0.05;;;0.03;;
56405;SDS011;42305;51.444;-2.584;2022-08-03T15:24:53;1.23;;;1.17;;
56405;SDS011;42305;51.444;-2.584;2022-08-03T15:27:20;0.32;;;0.32;;
56405;SDS011;42305;51.444;-2.584;2022-08-03T15:29:46;0.10;;;0.10;;
56405;SDS011;42305;51.444;-2.584;2022-08-03T15:32:12;0.00;;;0.00;;
56405;SDS011;42305;51.444;-2.584;2022-08-03T15:34:38;3.53;;;0.63;;
56405;SDS011;42305;51.444;-2.584;2022-08-03T15:37:04;0.15;;;0.15;;
56405;SDS011;42305;51.444;-2.584;2022-08-03T15:39:30;0.20;;;0.20;;
56405;SDS011;42305;51.444;-2.584;2022-08-03T15:41:56;0.10;;;0.10;;
56405;SDS011;42305;51.444;-2.584;2022-08-03T15:44:22;0.10;;;0.10;;
56405;SDS011;42305;51.444;-2.584;2022-08-03T15:46:49;0.35;;;0.35;;